Time;durP1;ratioP1;P1;durP2;ratioP2;P2;SDS_P1;SDS_P2;PMS_P1;PMS_P2;Temp;Humidity;BMP_temperature;BMP_pressure;BME280_temperature;BME280_humidity;BME280_pressure;Samples;Min_cycle;Max_cycle;Signal;HPM_P1;HPM_P2
2021/11/14 00:02:13;;;;;;;4.05;3.30;;;;;;;8.13;73.47;92579.72;2044266;70;20147;-69
2021/11/14 00:04:42;;;;;;;5.90;3.72;;;;;;;8.20;73.35;92578.81;2044401;70;20261;-72
2021/11/14 00:07:08;;;;;;;6.30;3.95;;;;;;;8.18;74.05;92581.47;2044388;70;20707;-73
2021/11/14 00:09:34;;;;;;;5.00;3.17;;;;;;;8.04;74.58;92575.63;2044182;70;20151;-73
2021/11/14 00:12:00;;;;;;;5.45;3.35;;;;;;;8.17;73.72;92571.56;2044396;70;20527;-68
2021/11/14 00:14:25;;;;;;;4.55;3.22;;;;;;;8.09;74.01;92568.22;2044370;70;20150;-69
2021/11/14 00:16:51;;;;;;;5.97;3.30;;;;;;;8.01;74.76;92564.88;2043692;70;20155;-70
2021/11/14 00:19:17;;;;;;;4.35;2.97;;;;;;;8.09;73.93;92560.53;2044324;70;20563;-70
2021/11/14 00:21:43;;;;;;;4.85;3.20;;;;;;;8.02;74.36;92555.16;2043771;70;20166;-69
2021/11/14 00:24:12;;;;;;;5.70;3.40;;;;;;;8.14;73.58;92564.34;2044088;70;20611;-71
2021/11/14 00:26:39;;;;;;;4.90;3.22;;;;;;;8.06;74.73;92552.59;2044136;70;20242;-70
2021/11/14 00:29:07;;;;;;;5.05;3.63;;;;;;;7.97;74.97;92551.34;2043745;70;20132;-73
2021/11/14 00:31:32;;;;;;;5.53;3.40;;;;;;;8.07;74.31;92562.50;2044231;70;20155;-69
2021/11/14 00:33:59;;;;;;;5.95;3.63;;;;;;;8.00;74.68;92557.78;2044054;70;20629;-69
2021/11/14 00:36:28;;;;;;;6.32;3.08;;;;;;;8.11;73.71;92554.34;2044099;70;20167;-70
2021/11/14 00:38:56;;;;;;;5.78;3.20;;;;;;;8.10;73.60;92550.06;2043858;70;20688;-74
2021/11/14 00:41:23;;;;;;;5.25;3.63;;;;;;;8.03;74.28;92553.81;2044216;70;20671;-72
2021/11/14 00:43:50;;;;;;;5.72;3.50;;;;;;;7.98;74.58;92552.78;2043654;70;20646;-72
2021/11/14 00:46:16;;;;;;;5.95;3.78;;;;;;;7.79;75.22;92550.06;2046219;70;20626;-70
2021/11/14 00:48:42;;;;;;;7.93;4.18;;;;;;;7.83;74.89;92551.09;2047658;70;20147;-72
2021/11/14 00:51:11;;;;;;;6.28;4.03;;;;;;;7.92;74.86;92557.25;2046540;70;20214;-70
2021/11/14 00:53:37;;;;;;;5.90;4.15;;;;;;;7.94;74.61;92557.38;2048309;70;20623;-71
2021/11/14 00:56:03;;;;;;;7.78;4.00;;;;;;;7.99;74.47;92556.34;2048079;70;20147;-74
2021/11/14 00:58:30;;;;;;;5.75;3.55;;;;;;;7.94;74.72;92557.38;2047735;70;20225;-69
2021/11/14 01:00:56;;;;;;;5.95;3.90;;;;;;;7.93;74.86;92556.66;2048270;70;20138;-73
2021/11/14 01:03:23;;;;;;;7.20;4.20;;;;;;;7.91;75.22;92559.31;2048126;70;20155;-71
2021/11/14 01:05:50;;;;;;;5.35;3.67;;;;;;;8.03;74.03;92557.34;2048191;70;20182;-72
2021/11/14 01:08:16;;;;;;;5.78;3.75;;;;;;;7.72;76.17;92554.53;2047754;70;20180;-71
2021/11/14 01:10:52;;;;;;;6.03;4.18;;;;;;;7.92;74.88;92554.44;2048208;70;20167;-71
2021/11/14 01:13:19;;;;;;;4.82;3.50;;;;;;;7.82;75.80;92549.59;2048450;70;20146;-69
2021/11/14 01:15:47;;;;;;;6.32;4.22;;;;;;;7.69;75.39;92554.97;2048354;70;20143;-70
2021/11/14 01:18:14;;;;;;;5.97;3.90;;;;;;;7.78;75.39;92552.13;2048420;70;20153;-71
2021/11/14 01:20:42;;;;;;;7.13;3.42;;;;;;;7.89;74.36;92550.78;2048251;70;20135;-69
2021/11/14 01:23:10;;;;;;;6.75;4.47;;;;;;;7.54;77.27;92539.25;2048277;70;20248;-70
2021/11/14 01:25:37;;;;;;;5.60;3.90;;;;;;;7.77;75.63;92541.53;2048130;70;20158;-70
2021/11/14 01:28:03;;;;;;;6.03;4.15;;;;;;;7.68;75.76;92534.63;2048119;70;20165;-73
2021/11/14 01:30:32;;;;;;;6.07;3.95;;;;;;;7.58;76.81;92533.94;2048212;70;20151;-70
2021/11/14 01:33:00;;;;;;;6.03;4.13;;;;;;;7.63;75.70;92544.09;2048293;70;20160;-70
2021/11/14 01:35:27;;;;;;;6.25;4.20;;;;;;;7.66;76.52;92536.56;2048268;70;20237;-70
2021/11/14 01:37:54;;;;;;;8.20;4.40;;;;;;;7.78;75.99;92540.94;2048500;70;20151;-71
2021/11/14 01:40:33;;;;;;;6.32;4.10;;;;;;;7.77;76.19;92538.72;2048169;70;20170;-71
2021/11/14 01:43:00;;;;;;;8.18;4.80;;;;;;;7.82;75.43;92538.41;2048396;70;20218;-70
2021/11/14 01:45:26;;;;;;;6.88;4.25;;;;;;;7.77;75.43;92541.53;2048202;70;20146;-70
2021/11/14 01:47:52;;;;;;;6.57;4.15;;;;;;;7.79;75.67;92541.66;2048226;70;20150;-71
2021/11/14 01:50:19;;;;;;;5.95;4.30;;;;;;;7.68;76.85;92542.31;2048258;70;20146;-71
2021/11/14 01:52:49;;;;;;;5.60;4.15;;;;;;;7.59;76.97;92544.53;2048246;70;20617;-73
2021/11/14 01:55:18;;;;;;;5.82;4.35;;;;;;;7.68;76.40;92543.03;2048078;70;20135;-71
2021/11/14 01:57:44;;;;;;;7.25;4.10;;;;;;;7.73;76.18;92544.06;2048126;70;20138;-70
2021/11/14 02:00:19;;;;;;;5.95;4.47;;;;;;;7.74;75.41;92546.25;2048234;70;20151;-71
2021/11/14 02:02:45;;;;;;;6.10;4.05;;;;;;;7.66;76.33;92537.31;2048348;70;20690;-71
2021/11/14 02:05:11;;;;;;;6.90;4.78;;;;;;;7.66;75.85;92547.78;2048091;70;20158;-70
2021/11/14 02:07:37;;;;;;;6.75;4.43;;;;;;;7.61;77.06;92547.50;2048111;70;20154;-70
2021/11/14 02:10:05;;;;;;;6.47;4.38;;;;;;;7.77;74.76;92539.47;2048009;70;20151;-70
2021/11/14 02:12:31;;;;;;;7.07;4.28;;;;;;;7.88;74.71;92543.72;2048009;70;20225;-70
2021/11/14 02:14:57;;;;;;;6.82;4.70;;;;;;;7.86;74.91;92538.69;2048253;70;20158;-73
2021/11/14 02:17:23;;;;;;;6.15;4.38;;;;;;;7.54;77.33;92542.06;2048215;70;20176;-73
2021/11/14 02:19:51;;;;;;;7.78;5.20;;;;;;;7.60;77.27;92536.88;2048179;70;20190;-73
2021/11/14 02:22:18;;;;;;;10.45;5.20;;;;;;;7.62;77.26;92542.63;2048110;70;20686;-74
2021/11/14 02:24:44;;;;;;;7.63;5.07;;;;;;;7.58;77.12;92536.75;2047928;70;20150;-73
2021/11/14 02:27:11;;;;;;;8.93;5.55;;;;;;;7.51;77.73;92535.56;2048195;70;20162;-70
2021/11/14 02:29:37;;;;;;;7.57;5.00;;;;;;;7.63;76.92;92539.22;2048304;70;20151;-73
2021/11/14 02:32:03;;;;;;;9.10;5.10;;;;;;;7.57;77.23;92538.09;2047987;70;20170;-71
2021/11/14 02:34:29;;;;;;;6.47;4.80;;;;;;;7.37;77.67;92540.94;2048124;70;20197;-70
2021/11/14 02:36:55;;;;;;;7.10;4.75;;;;;;;7.56;77.18;92539.41;2048115;70;20571;-70
2021/11/14 02:39:21;;;;;;;8.00;5.32;;;;;;;7.66;76.79;92536.56;2048230;70;20162;-69
2021/11/14 02:41:46;;;;;;;8.50;5.00;;;;;;;7.47;77.37;92531.75;2047932;70;20217;-69
2021/11/14 02:44:12;;;;;;;9.57;6.45;;;;;;;7.37;78.37;92529.00;2048066;70;20507;-72
2021/11/14 02:46:38;;;;;;;6.60;4.50;;;;;;;7.38;78.47;92525.63;2047985;70;20147;-71
2021/11/14 02:49:04;;;;;;;7.55;4.97;;;;;;;7.34;78.79;92524.59;2048205;70;20218;-71
2021/11/14 02:51:31;;;;;;;6.50;4.80;;;;;;;7.24;79.09;92521.84;2047647;70;20154;-74
2021/11/14 02:53:57;;;;;;;8.75;4.90;;;;;;;7.59;76.91;92524.19;2048189;70;20146;-72
2021/11/14 02:56:24;;;;;;;7.88;4.72;;;;;;;7.73;75.96;92530.03;2047964;70;20163;-70
2021/11/14 02:58:50;;;;;;;7.32;5.05;;;;;;;7.72;76.57;92528.56;2047975;70;20231;-70
2021/11/14 03:01:31;;;;;;;7.15;4.72;;;;;;;7.47;77.69;92531.75;2048176;70;20607;-73
2021/11/14 03:03:58;;;;;;;6.07;4.38;;;;;;;7.38;78.07;92528.41;2048142;70;20225;-71
2021/11/14 03:06:27;;;;;;;5.85;4.22;;;;;;;7.52;77.44;92533.53;2048082;70;20182;-71
2021/11/14 03:08:53;;;;;;;4.88;3.90;;;;;;;7.57;77.56;92529.69;2047671;70;20159;-73
2021/11/14 03:11:19;;;;;;;5.28;4.00;;;;;;;7.65;76.44;92524.59;2047972;70;20170;-73
2021/11/14 03:13:45;;;;;;;5.93;4.32;;;;;;;7.61;77.21;92532.75;2048050;70;20181;-72
2021/11/14 03:16:13;;;;;;;6.25;4.07;;;;;;;7.54;76.79;92531.59;2048115;70;20230;-70
2021/11/14 03:18:39;;;;;;;7.25;4.07;;;;;;;7.53;77.14;92538.53;2048094;70;20170;-70
2021/11/14 03:21:05;;;;;;;5.90;3.90;;;;;;;7.30;78.70;92533.44;2047967;70;20525;-71
2021/11/14 03:23:31;;;;;;;5.97;3.90;;;;;;;7.38;78.41;92533.28;2048083;70;20209;-72
2021/11/14 03:25:58;;;;;;;4.88;3.72;;;;;;;7.60;76.67;92540.41;2047935;70;20155;-71
2021/11/14 03:28:24;;;;;;;5.88;3.75;;;;;;;7.67;76.54;92544.38;2048087;70;20221;-73
2021/11/14 03:30:53;;;;;;;6.05;3.72;;;;;;;7.64;76.29;92549.09;2048086;70;20143;-73
2021/11/14 03:33:19;;;;;;;5.07;4.07;;;;;;;7.59;76.90;92544.53;2048032;70;20182;-71
2021/11/14 03:35:54;;;;;;;4.88;4.03;;;;;;;7.60;77.10;92542.47;2048205;70;20146;-71
2021/11/14 03:38:26;;;;;;;4.72;3.60;;;;;;;7.64;76.65;92546.28;2048035;70;20167;-72
2021/11/14 03:40:52;;;;;;;4.25;3.47;;;;;;;7.71;75.58;92550.25;2047906;70;20237;-70
2021/11/14 03:43:18;;;;;;;5.97;3.92;;;;;;;7.57;77.11;92549.28;2048058;70;20510;-70
2021/11/14 03:45:44;;;;;;;5.03;3.80;;;;;;;7.47;77.32;92549.31;2048120;70;20142;-70
2021/11/14 03:48:11;;;;;;;6.70;4.22;;;;;;;7.30;78.99;92557.91;2048106;70;20142;-72
2021/11/14 03:50:37;;;;;;;6.95;4.97;;;;;;;7.35;78.89;92548.47;2048015;70;20202;-73
2021/11/14 03:53:04;;;;;;;7.03;4.82;;;;;;;7.59;77.21;92558.56;2047896;70;20166;-73
2021/11/14 03:55:29;;;;;;;5.97;4.60;;;;;;;7.65;76.77;92555.44;2047790;70;20174;-70
2021/11/14 03:57:55;;;;;;;8.13;4.65;;;;;;;7.57;76.80;92552.81;2048092;70;20157;-74
2021/11/14 04:00:25;;;;;;;6.10;4.68;;;;;;;7.34;78.50;92553.34;2048175;70;20157;-74
2021/11/14 04:02:53;;;;;;;7.38;5.05;;;;;;;7.18;79.55;92549.38;2047970;70;20143;-74
2021/11/14 04:05:20;;;;;;;5.72;4.65;;;;;;;7.58;77.68;92562.69;2047895;70;20168;-72
2021/11/14 04:07:46;;;;;;;7.30;5.25;;;;;;;7.61;77.17;92558.72;2047850;70;20150;-73
2021/11/14 04:10:12;;;;;;;8.38;5.32;;;;;;;7.59;77.24;92552.22;2048147;70;20591;-70
2021/11/14 04:12:39;;;;;;;6.70;4.55;;;;;;;7.66;76.77;92553.38;2048072;70;20246;-72
2021/11/14 04:15:10;;;;;;;6.47;4.50;;;;;;;7.55;78.24;92552.66;2047840;70;20162;-70
2021/11/14 04:17:36;;;;;;;6.80;4.80;;;;;;;7.49;78.72;92552.25;2047274;70;20139;-70
2021/11/14 04:20:04;;;;;;;6.40;4.88;;;;;;;7.64;77.13;92548.34;2047919;70;20205;-70
2021/11/14 04:22:29;;;;;;;8.38;5.57;;;;;;;7.61;76.94;92543.97;2047913;70;20213;-70
2021/11/14 04:24:55;;;;;;;7.28;5.22;;;;;;;7.51;77.88;92560.06;2047925;70;20249;-71
2021/11/14 04:27:21;;;;;;;8.77;5.60;;;;;;;7.23;79.84;92553.22;2048116;70;20185;-70
2021/11/14 04:29:46;;;;;;;6.95;4.63;;;;;;;7.39;78.73;92554.34;2048404;70;20527;-70
2021/11/14 04:32:12;;;;;;;7.22;4.97;;;;;;;7.35;79.35;92556.88;2048551;70;20182;-72
2021/11/14 04:34:39;;;;;;;6.10;4.50;;;;;;;7.46;78.80;92549.91;2048467;70;20150;-72
2021/11/14 04:37:05;;;;;;;6.53;4.47;;;;;;;7.55;78.02;92549.13;2048407;70;20181;-71
2021/11/14 04:39:31;;;;;;;5.57;4.47;;;;;;;7.64;76.77;92553.97;2047870;70;20178;-70
2021/11/14 04:41:56;;;;;;;5.80;4.10;;;;;;;7.68;76.57;92545.84;2048310;70;20158;-71
2021/11/14 04:44:24;;;;;;;5.78;3.92;;;;;;;7.66;77.43;92553.38;2048494;70;20249;-71
2021/11/14 04:46:50;;;;;;;6.07;4.35;;;;;;;7.77;75.84;92561.16;2048493;70;20154;-72
2021/11/14 04:49:20;;;;;;;6.18;4.40;;;;;;;7.67;76.69;92560.44;2048377;70;20210;-73
2021/11/14 04:51:48;;;;;;;5.80;4.10;;;;;;;7.69;77.06;92555.72;2048509;70;20146;-72
2021/11/14 04:54:15;;;;;;;5.63;4.10;;;;;;;7.74;74.80;92557.47;2048301;70;20142;-70
2021/11/14 04:56:41;;;;;;;5.00;3.88;;;;;;;7.75;75.19;92552.63;2048218;70;20154;-70
2021/11/14 04:59:07;;;;;;;6.10;4.38;;;;;;;7.61;77.23;92555.91;2048254;70;20162;-70
2021/11/14 05:01:32;;;;;;;5.68;4.45;;;;;;;7.30;78.07;92552.31;2048405;70;20146;-70
2021/11/14 05:03:58;;;;;;;4.75;3.95;;;;;;;7.05;79.90;92556.19;2048353;70;20165;-73
2021/11/14 05:06:24;;;;;;;6.78;3.78;;;;;;;7.16;80.51;92556.91;2048400;70;20579;-73
2021/11/14 05:08:50;;;;;;;5.63;3.65;;;;;;;7.52;78.24;92558.75;2048474;70;20595;-70
2021/11/14 05:11:15;;;;;;;6.07;3.92;;;;;;;7.66;76.17;92559.72;2048217;70;20150;-69
2021/11/14 05:13:41;;;;;;;7.53;4.07;;;;;;;7.59;76.64;92566.22;2047743;70;20147;-70
2021/11/14 05:16:06;;;;;;;4.43;3.60;;;;;;;7.46;76.83;92561.09;2047711;70;20241;-71
2021/11/14 05:18:33;;;;;;;5.10;3.78;;;;;;;7.29;77.34;92557.19;2048324;70;20161;-72
2021/11/14 05:20:58;;;;;;;6.07;3.40;;;;;;;7.37;76.11;92559.81;2048315;70;20143;-72
2021/11/14 05:23:24;;;;;;;6.20;4.00;;;;;;;7.31;76.76;92554.50;2048329;70;20694;-71
2021/11/14 05:25:49;;;;;;;4.35;3.20;;;;;;;7.47;75.59;92554.16;2048266;70;20153;-73
2021/11/14 05:28:15;;;;;;;7.03;3.70;;;;;;;7.36;76.80;92552.72;2048289;70;20166;-71
2021/11/14 05:30:41;;;;;;;7.30;5.70;;;;;;;7.27;76.20;92554.22;2048228;70;20171;-71
2021/11/14 05:33:07;;;;;;;6.03;4.22;;;;;;;7.30;76.69;92560.72;2048439;70;20189;-71
2021/11/14 05:35:33;;;;;;;3.92;3.35;;;;;;;7.28;75.02;92550.09;2048254;70;20158;-73
2021/11/14 05:37:58;;;;;;;4.30;3.22;;;;;;;6.99;77.01;92558.56;2048150;70;20135;-71
2021/11/14 05:40:25;;;;;;;4.15;3.13;;;;;;;7.21;76.07;92556.59;2047998;70;20158;-74
2021/11/14 05:42:50;;;;;;;4.22;3.00;;;;;;;6.99;76.20;92561.34;2048257;70;20146;-73
2021/11/14 05:45:16;;;;;;;6.68;2.92;;;;;;;6.98;76.03;92559.16;2048379;70;20654;-73
2021/11/14 05:47:42;;;;;;;6.45;4.30;;;;;;;7.17;76.23;92561.19;2048220;70;20146;-71
2021/11/14 05:50:08;;;;;;;4.50;3.60;;;;;;;7.24;74.72;92563.06;2048157;70;20519;-72
2021/11/14 05:52:35;;;;;;;5.28;3.20;;;;;;;7.23;74.89;92556.75;2048227;70;20614;-72
2021/11/14 05:55:02;;;;;;;3.80;2.92;;;;;;;7.25;75.48;92564.56;2048159;70;20158;-71
2021/11/14 05:57:29;;;;;;;3.35;2.70;;;;;;;7.31;75.67;92562.91;2048162;70;20162;-74
2021/11/14 06:00:07;;;;;;;3.58;2.70;;;;;;;7.24;74.74;92566.63;2048392;70;20210;-71
2021/11/14 06:02:47;;;;;;;4.70;3.10;;;;;;;7.30;74.67;92569.84;2048253;70;20159;-73
2021/11/14 06:05:15;;;;;;;4.32;2.90;;;;;;;7.39;74.80;92565.56;2048378;70;20146;-73
2021/11/14 06:07:42;;;;;;;6.63;2.85;;;;;;;7.21;75.85;92565.00;2047641;70;20146;-73
2021/11/14 06:10:08;;;;;;;5.30;3.50;;;;;;;7.28;75.14;92569.69;2048089;70;20341;-73
2021/11/14 06:12:37;;;;;;;5.90;3.45;;;;;;;7.42;73.08;92577.63;2048219;70;20238;-70
2021/11/14 06:15:04;;;;;;;7.20;3.67;;;;;;;7.31;74.20;92582.50;2048174;70;20146;-72
2021/11/14 06:17:30;;;;;;;7.55;4.40;;;;;;;7.31;74.38;92574.13;2048119;70;20210;-71
2021/11/14 06:19:56;;;;;;;5.20;2.75;;;;;;;7.32;74.50;92572.78;2048120;70;20233;-72
2021/11/14 06:22:22;;;;;;;5.22;3.22;;;;;;;7.33;73.97;92576.31;2048204;70;20149;-72
2021/11/14 06:24:47;;;;;;;4.45;2.97;;;;;;;7.40;73.36;92578.22;2047545;70;20206;-71
2021/11/14 06:27:13;;;;;;;3.60;2.83;;;;;;;7.04;74.51;92584.78;2048164;70;20500;-70
2021/11/14 06:29:39;;;;;;;5.18;2.80;;;;;;;7.16;75.18;92590.50;2048120;70;20155;-72
2021/11/14 06:32:05;;;;;;;3.60;2.58;;;;;;;7.22;74.59;92579.75;2048284;70;20253;-71
2021/11/14 06:34:31;;;;;;;4.18;2.33;;;;;;;7.30;73.67;92595.06;2048121;70;20139;-71
2021/11/14 06:36:56;;;;;;;3.08;2.42;;;;;;;7.32;73.54;92589.59;2048190;70;20229;-72
2021/11/14 06:39:22;;;;;;;3.38;2.38;;;;;;;7.32;73.30;92597.25;2048264;70;20154;-72
2021/11/14 06:41:49;;;;;;;3.63;2.70;;;;;;;7.30;72.79;92589.44;2048029;70;20575;-70
2021/11/14 06:44:15;;;;;;;4.60;2.30;;;;;;;7.34;73.06;92591.81;2048165;70;20151;-70
2021/11/14 06:46:40;;;;;;;4.18;2.25;;;;;;;7.35;72.52;92590.47;2048093;70;20606;-72
2021/11/14 06:49:06;;;;;;;2.85;2.03;;;;;;;7.33;73.02;92604.31;2048225;70;20217;-70
2021/11/14 06:51:32;;;;;;;2.30;1.90;;;;;;;7.31;73.05;92601.38;2048171;70;20155;-70
2021/11/14 06:53:58;;;;;;;2.47;2.20;;;;;;;7.28;73.57;92602.56;2048148;70;20625;-70
2021/11/14 06:56:24;;;;;;;3.35;2.20;;;;;;;7.34;72.78;92603.75;2047953;70;20241;-69
2021/11/14 06:58:51;;;;;;;3.63;2.38;;;;;;;7.12;73.63;92605.69;2048065;70;20206;-69
2021/11/14 07:01:17;;;;;;;2.83;1.73;;;;;;;7.26;72.71;92608.03;2048126;70;20142;-73
2021/11/14 07:03:42;;;;;;;2.20;1.92;;;;;;;7.28;72.35;92610.97;2048085;70;20245;-74
2021/11/14 07:06:08;;;;;;;2.63;2.00;;;;;;;7.18;73.74;92608.19;2048066;70;20594;-71
2021/11/14 07:08:34;;;;;;;3.10;2.08;;;;;;;7.13;74.39;92609.22;2048108;70;20162;-73
2021/11/14 07:11:00;;;;;;;3.03;2.00;;;;;;;7.25;74.07;92615.69;2048206;70;20265;-72
2021/11/14 07:13:26;;;;;;;2.33;2.10;;;;;;;7.23;73.71;92621.13;2047962;70;20245;-71
2021/11/14 07:15:51;;;;;;;4.25;2.20;;;;;;;7.27;73.02;92621.44;2048186;70;20185;-71
2021/11/14 07:18:17;;;;;;;3.67;2.28;;;;;;;7.22;73.04;92618.94;2048197;70;20178;-71
2021/11/14 07:20:43;;;;;;;5.53;2.60;;;;;;;7.27;72.10;92615.09;2048044;70;20245;-72
2021/11/14 07:23:09;;;;;;;2.83;2.33;;;;;;;7.24;73.23;92617.03;2048185;70;20164;-73
2021/11/14 07:25:34;;;;;;;4.60;2.30;;;;;;;7.17;73.09;92617.91;2048021;70;20139;-71
2021/11/14 07:28:00;;;;;;;3.35;2.50;;;;;;;7.14;72.92;92625.41;2048117;70;20150;-69
2021/11/14 07:30:26;;;;;;;3.15;2.20;;;;;;;7.18;72.60;92622.19;2048038;70;20185;-71
2021/11/14 07:32:53;;;;;;;4.07;2.53;;;;;;;7.18;72.68;92633.38;2048162;70;20603;-73
2021/11/14 07:35:21;;;;;;;3.33;2.50;;;;;;;7.25;72.89;92640.91;2048032;70;20161;-74
2021/11/14 07:37:47;;;;;;;3.38;2.33;;;;;;;7.20;72.79;92635.59;2047996;70;20166;-72
2021/11/14 07:40:16;;;;;;;4.40;2.70;;;;;;;7.28;72.66;92636.16;2047925;70;20147;-73
2021/11/14 07:42:44;;;;;;;2.70;1.92;;;;;;;7.26;73.18;92642.38;2047983;70;20186;-72
2021/11/14 07:45:12;;;;;;;3.38;2.60;;;;;;;7.30;72.93;92639.84;2047973;70;20146;-71
2021/11/14 07:47:39;;;;;;;3.42;2.30;;;;;;;7.18;73.63;92636.19;2048010;70;20162;-72
2021/11/14 07:50:06;;;;;;;3.40;2.30;;;;;;;7.26;74.63;92639.56;2047968;70;20150;-73
2021/11/14 07:52:31;;;;;;;3.20;2.10;;;;;;;7.34;74.33;92636.63;2047920;70;20131;-74
2021/11/14 07:54:58;;;;;;;3.63;2.50;;;;;;;7.34;74.60;92631.00;2047769;70;20134;-71
2021/11/14 07:57:24;;;;;;;3.75;2.45;;;;;;;7.36;74.54;92637.47;2047821;70;20143;-74
2021/11/14 07:59:51;;;;;;;4.72;3.53;;;;;;;7.39;74.24;92627.91;2048047;70;20154;-74
2021/11/14 08:02:17;;;;;;;5.72;3.90;;;;;;;7.38;74.38;92631.31;2047476;70;20170;-71
2021/11/14 08:04:43;;;;;;;8.50;6.30;;;;;;;7.12;74.77;92639.28;2048322;70;20234;-71
2021/11/14 08:07:09;;;;;;;8.18;6.20;;;;;;;7.09;75.22;92634.84;2048400;70;20610;-71
2021/11/14 08:09:36;;;;;;;9.75;5.80;;;;;;;6.86;76.55;92642.97;2048364;70;20587;-72
2021/11/14 08:12:02;;;;;;;8.52;5.13;;;;;;;7.08;76.01;92635.44;2048525;70;20637;-73
2021/11/14 08:14:28;;;;;;;9.80;5.30;;;;;;;7.33;75.01;92638.69;2048487;70;20159;-72
2021/11/14 08:16:53;;;;;;;8.88;5.35;;;;;;;7.36;75.01;92637.47;2048415;70;20151;-75
2021/11/14 08:19:19;;;;;;;10.77;5.95;;;;;;;7.36;74.83;92639.56;2048430;70;20166;-70
2021/11/14 08:21:45;;;;;;;8.32;5.00;;;;;;;7.36;74.85;92639.56;2048447;70;20606;-71
2021/11/14 08:24:10;;;;;;;12.45;8.32;;;;;;;7.36;74.11;92643.09;2048568;70;20604;-69
2021/11/14 08:26:36;;;;;;;17.08;9.23;;;;;;;7.19;75.42;92640.44;2047902;70;20154;-73
2021/11/14 08:29:02;;;;;;;15.75;9.50;;;;;;;7.34;73.88;92633.81;2048417;70;20182;-73
2021/11/14 08:31:27;;;;;;;14.90;8.93;;;;;;;7.24;74.88;92644.28;2048499;70;20187;-73
2021/11/14 08:33:53;;;;;;;59.70;29.77;;;;;;;7.21;75.56;92640.59;2048410;70;20237;-73
2021/11/14 08:36:20;;;;;;;45.60;24.45;;;;;;;7.21;75.25;92637.81;2048450;70;20178;-72
2021/11/14 08:38:46;;;;;;;36.75;19.65;;;;;;;7.16;75.67;92650.03;2048387;70;20604;-71
2021/11/14 08:41:12;;;;;;;23.17;12.32;;;;;;;7.33;74.46;92646.31;2048288;70;20150;-73
2021/11/14 08:43:40;;;;;;;20.40;11.80;;;;;;;7.42;74.36;92651.19;2048348;70;20158;-69
2021/11/14 08:46:07;;;;;;;28.08;17.90;;;;;;;7.04;76.03;92646.34;2048378;70;20146;-70
2021/11/14 08:48:33;;;;;;;16.77;11.60;;;;;;;7.02;76.30;92651.81;2048377;70;20147;-70
2021/11/14 08:50:58;;;;;;;13.48;9.43;;;;;;;7.27;75.27;92652.22;2048370;70;20151;-71
2021/11/14 08:53:24;;;;;;;14.60;9.40;;;;;;;7.44;74.51;92650.59;2048484;70;20162;-74
2021/11/14 08:55:53;;;;;;;13.13;8.65;;;;;;;7.56;74.17;92651.44;2048499;70;20182;-71
2021/11/14 08:58:18;;;;;;;14.65;9.02;;;;;;;7.57;74.27;92653.69;2048183;70;20603;-69
2021/11/14 09:00:44;;;;;;;13.57;8.25;;;;;;;7.53;74.28;92644.97;2047518;70;20211;-70
2021/11/14 09:03:10;;;;;;;12.68;8.90;;;;;;;7.64;74.51;92644.34;2048025;70;20242;-73
2021/11/14 09:05:36;;;;;;;13.32;8.70;;;;;;;7.67;74.60;92647.31;2048340;70;20147;-70
2021/11/14 09:08:03;;;;;;;10.27;6.25;;;;;;;7.53;74.56;92644.25;2048257;70;20162;-70
2021/11/14 09:10:29;;;;;;;6.85;5.53;;;;;;;7.48;74.31;92637.63;2048113;70;20146;-72
2021/11/14 09:12:56;;;;;;;7.38;5.53;;;;;;;7.55;74.53;92639.50;2048279;70;20201;-73
2021/11/14 09:15:23;;;;;;;6.55;4.65;;;;;;;7.55;74.64;92641.56;2048307;70;20154;-71
2021/11/14 09:17:48;;;;;;;9.55;6.65;;;;;;;7.56;75.84;92645.84;2048464;70;20626;-70
2021/11/14 09:20:14;;;;;;;13.70;8.65;;;;;;;7.41;76.70;92644.09;2048269;70;20151;-72
2021/11/14 09:22:40;;;;;;;17.58;11.32;;;;;;;7.40;76.88;92648.25;2048124;70;20234;-71
2021/11/14 09:25:08;;;;;;;8.43;6.07;;;;;;;7.60;75.59;92644.06;2048006;70;20140;-70
2021/11/14 09:27:33;;;;;;;6.10;3.58;;;;;;;7.67;74.50;92645.25;2047642;70;20154;-75
2021/11/14 09:30:00;;;;;;;6.13;3.75;;;;;;;7.75;74.73;92645.09;2048228;70;20162;-76
2021/11/14 09:32:27;;;;;;;7.97;5.35;;;;;;;7.74;74.20;92644.31;2048221;70;20185;-72
2021/11/14 09:34:52;;;;;;;7.93;4.82;;;;;;;7.86;73.94;92650.78;2048046;70;20158;-71
2021/11/14 09:37:19;;;;;;;22.80;12.00;;;;;;;7.86;74.68;92647.97;2048282;70;20241;-69
2021/11/14 09:39:44;;;;;;;46.00;22.90;;;;;;;7.64;74.87;92646.41;2047675;70;20162;-70
2021/11/14 09:42:12;;;;;;;20.90;11.82;;;;;;;7.97;73.51;92651.50;2048250;70;20214;-73
2021/11/14 09:44:38;;;;;;;25.02;13.75;;;;;;;8.27;72.44;92644.44;2048256;70;20143;-71
2021/11/14 09:47:03;;;;;;;19.70;10.70;;;;;;;8.07;72.61;92644.53;2048255;70;20674;-77
2021/11/14 09:49:31;;;;;;;19.55;11.40;;;;;;;8.35;72.59;92642.19;2048254;70;20158;-71
2021/11/14 09:52:00;;;;;;;17.58;10.82;;;;;;;8.55;72.52;92651.25;2048237;70;20146;-72
2021/11/14 09:54:27;;;;;;;19.00;10.05;;;;;;;8.60;72.00;92650.19;2048271;70;20150;-70
2021/11/14 09:56:55;;;;;;;16.00;9.18;;;;;;;8.68;70.12;92656.34;2048083;70;20181;-73
2021/11/14 09:59:21;;;;;;;17.63;12.43;;;;;;;8.65;69.99;92649.84;2048163;70;20162;-70
2021/11/14 10:01:48;;;;;;;15.82;10.30;;;;;;;8.84;69.91;92642.66;2048322;70;20134;-73
2021/11/14 10:04:14;;;;;;;10.57;7.70;;;;;;;8.89;69.09;92650.03;2048212;70;20139;-74
2021/11/14 10:06:40;;;;;;;11.52;8.50;;;;;;;8.95;68.80;92647.59;2048207;70;20181;-75
2021/11/14 10:09:07;;;;;;;7.35;5.28;;;;;;;8.85;67.86;92647.69;2048346;70;20159;-71
2021/11/14 10:11:38;;;;;;;7.32;4.90;;;;;;;9.12;67.39;92649.41;2048092;70;20233;-75
2021/11/14 10:14:05;;;;;;;9.90;5.70;;;;;;;9.05;68.29;92641.91;2048181;70;20253;-78
2021/11/14 10:16:33;;;;;;;11.88;6.05;;;;;;;9.20;67.07;92649.19;2047672;70;20264;-69
2021/11/14 10:19:04;;;;;;;11.60;6.80;;;;;;;9.39;66.70;92644.16;2048139;70;20275;-71
2021/11/14 10:21:32;;;;;;;12.88;8.77;;;;;;;8.96;68.37;92649.06;2048200;70;20266;-73
2021/11/14 10:24:05;;;;;;;7.72;4.50;;;;;;;8.84;68.28;92649.03;2048135;70;20218;-73
2021/11/14 10:26:32;;;;;;;7.82;5.60;;;;;;;8.63;69.67;92646.19;2048034;70;20633;-70
2021/11/14 10:29:03;;;;;;;7.50;4.50;;;;;;;9.25;67.80;92637.59;2048199;70;20269;-70
2021/11/14 10:31:30;;;;;;;7.97;4.60;;;;;;;9.20;67.47;92641.50;2048332;70;20150;-72
2021/11/14 10:33:56;;;;;;;6.93;4.47;;;;;;;8.74;68.00;92633.56;2048127;70;20158;-69
2021/11/14 10:36:23;;;;;;;8.20;3.70;;;;;;;9.24;68.00;92635.41;2048099;70;20610;-71
2021/11/14 10:38:49;;;;;;;4.55;3.10;;;;;;;9.02;67.60;92634.69;2048116;70;20162;-72
2021/11/14 10:41:16;;;;;;;4.57;2.88;;;;;;;9.28;66.88;92644.09;2047880;70;20146;-74
2021/11/14 10:43:43;;;;;;;3.03;2.22;;;;;;;9.42;66.25;92642.19;2048173;70;20142;-76
2021/11/14 10:46:17;;;;;;;2.42;2.05;;;;;;;9.23;66.42;92639.56;2047986;70;20151;-70
2021/11/14 10:48:43;;;;;;;3.50;3.05;;;;;;;9.57;65.47;92635.41;2047844;70;20161;-73
2021/11/14 10:51:11;;;;;;;3.13;2.55;;;;;;;9.49;65.77;92635.63;2048105;70;20143;-71
2021/11/14 10:53:38;;;;;;;3.35;2.50;;;;;;;9.48;65.85;92644.66;2046781;70;20630;-75
2021/11/14 10:56:10;;;;;;;3.88;2.88;;;;;;;9.65;65.15;92641.53;2046927;70;20197;-70
2021/11/14 10:58:37;;;;;;;4.57;3.63;;;;;;;8.96;66.26;92645.53;2046792;70;20165;-70
2021/11/14 11:01:06;;;;;;;4.90;3.60;;;;;;;9.31;66.92;92634.47;2047257;70;20143;-69
2021/11/14 11:03:40;;;;;;;4.15;3.25;;;;;;;9.50;66.22;92636.38;2047713;70;20142;-70
2021/11/14 11:06:08;;;;;;;3.53;3.05;;;;;;;8.87;67.04;92638.66;2047532;70;20179;-71
2021/11/14 11:08:36;;;;;;;5.85;3.95;;;;;;;9.57;66.05;92641.75;2047469;70;21157;-72
2021/11/14 11:11:07;;;;;;;10.43;7.32;;;;;;;9.40;66.72;92644.88;2047298;70;20218;-69
2021/11/14 11:13:44;;;;;;;7.80;5.57;;;;;;;9.27;67.22;92639.81;2048007;70;20153;-69
2021/11/14 11:16:18;;;;;;;6.53;5.35;;;;;;;9.53;67.56;92647.13;2046305;70;20276;-70
2021/11/14 11:18:44;;;;;;;7.80;4.95;;;;;;;9.87;67.17;92642.94;2042221;70;20175;-69
2021/11/14 11:21:12;;;;;;;7.15;4.60;;;;;;;9.89;65.48;92636.69;2040525;70;20173;-69
2021/11/14 11:23:45;;;;;;;5.30;4.18;;;;;;;10.06;65.67;92644.06;2040973;70;20239;-72
2021/11/14 11:26:18;;;;;;;5.07;3.88;;;;;;;10.17;64.82;92635.66;2041024;70;20159;-71
2021/11/14 11:28:48;;;;;;;4.57;3.70;;;;;;;10.22;65.17;92639.44;2041484;70;20163;-69
2021/11/14 11:31:22;;;;;;;5.15;3.70;;;;;;;10.29;65.54;92635.66;2040810;70;20222;-69
2021/11/14 11:33:50;;;;;;;3.63;2.90;;;;;;;10.11;64.23;92638.06;2040784;70;20222;-72
2021/11/14 11:36:17;;;;;;;4.07;3.10;;;;;;;10.14;65.28;92645.28;2041175;70;20148;-71
2021/11/14 11:38:45;;;;;;;3.83;3.10;;;;;;;9.88;65.30;92640.84;2041400;70;20170;-73